»·PEaware :: SWA2041 KLAS-KSNA

SWA2041 :: KLAS-KSNA

FLIGHT INFORMATION

Flight Status: Arrived
Operator:
Southwest Airlines
More flights by this operator :: More flights under this callsign
Pilot: Anonymous 23662 (23662)
Aircraft: BOEING 737-800
(B738)
More flights by this aircraft type
Origin: KLAS McCarran Intl
United States
Destination: KSNA John Wayne-Orange Co
United States
More flights between these airports :: More routes between these airports
Route: BOACH8 WHIGG FEYLA DSNEE4
File this flight plan on PilotEdge
Remarks: RMK / SIMBRIEF
Altitude:
(Current/Filed)
22,000ft
Speed:
(Current/Filed)
436kts
Departed: 13-Feb-20 03:24 PM
Arrived: 13-Feb-20 04:15 PM
Distance/Time
Traveled:
197nm/0:51
Distance/Time
To Go:
Arrived

Flight Plot

Page will automatically refresh every two minutes.

Flight plan parsing failed; only flown route is shown


Map Options




Map Legend


Flown Route
Filed Route
Departure Airport
Arrival Airport
Navaid (VOR, NDB)
Fix

Horizontal Profiles

Position Reports

Time Latitude Longitude Heading Altitude Ground
Speed
13-Feb-20 15:02 36.083238 -115.152988 156 2113ft 0kts
13-Feb-20 15:02 36.083238 -115.152988 156 2113ft 0kts
13-Feb-20 15:03 36.083238 -115.152988 156 2113ft 0kts
13-Feb-20 15:04 36.083238 -115.152988 156 2113ft 0kts
13-Feb-20 15:05 36.083238 -115.152988 156 2113ft 0kts
13-Feb-20 15:06 36.083238 -115.152988 156 2113ft 0kts
13-Feb-20 15:07 36.083238 -115.152988 156 2113ft 0kts
13-Feb-20 15:08 36.083238 -115.152988 156 2113ft 0kts
13-Feb-20 15:09 36.083238 -115.152988 156 2113ft 0kts
13-Feb-20 15:10 36.083238 -115.152988 156 2113ft 0kts
13-Feb-20 15:11 36.083238 -115.152988 156 2113ft 0kts
13-Feb-20 15:12 36.083446 -115.153099 156 2113ft 2kts
13-Feb-20 15:13 36.083794 -115.153167 245 2112ft 1kts
13-Feb-20 15:14 36.083820 -115.153073 246 2112ft 0kts
13-Feb-20 15:15 36.083820 -115.153073 246 2112ft 0kts
13-Feb-20 15:16 36.083820 -115.153073 246 2112ft 0kts
13-Feb-20 15:17 36.083674 -115.154681 276 2118ft 9kts
13-Feb-20 15:18 36.085108 -115.156826 309 2124ft 8kts
13-Feb-20 15:19 36.088080 -115.157249 28 2117ft 26kts
13-Feb-20 15:20 36.093251 -115.154441 21 2095ft 33kts
13-Feb-20 15:21 36.097516 -115.152204 336 2080ft 18kts
13-Feb-20 15:22 36.097704 -115.154060 207 2085ft 24kts
13-Feb-20 15:23 36.072216 -115.168826 207 2776ft 184kts
13-Feb-20 15:24 36.027196 -115.197040 216 5098ft 238kts
13-Feb-20 15:25 35.991661 -115.253090 240 6978ft 304kts
13-Feb-20 15:26 35.941629 -115.303447 196 10184ft 294kts
13-Feb-20 15:27 35.874771 -115.313377 184 11273ft 351kts
13-Feb-20 15:28 35.800149 -115.308812 174 13154ft 371kts
13-Feb-20 15:29 35.724971 -115.301838 183 15051ft 383kts
13-Feb-20 15:30 35.651089 -115.337674 219 16891ft 395kts
13-Feb-20 15:31 35.590600 -115.412882 227 18621ft 407kts
13-Feb-20 15:32 35.530636 -115.493393 227 20242ft 419kts
13-Feb-20 15:33 35.469257 -115.575943 227 21729ft 430kts
13-Feb-20 15:34 35.408790 -115.657434 227 22128ft 444kts
13-Feb-20 15:35 35.345028 -115.743281 227 22122ft 459kts
13-Feb-20 15:36 35.273882 -115.838858 227 22105ft 458kts
13-Feb-20 15:37 35.191724 -115.946889 225 22101ft 458kts
13-Feb-20 15:38 35.115464 -116.042436 225 22101ft 458kts
13-Feb-20 15:39 35.047958 -116.127217 225 22101ft 458kts
13-Feb-20 15:40 34.981065 -116.211208 224 22112ft 452kts
13-Feb-20 15:41 34.915569 -116.293301 225 22108ft 445kts
13-Feb-20 15:42 34.852790 -116.372221 226 22089ft 446kts
13-Feb-20 15:43 34.788778 -116.453639 226 22074ft 445kts
13-Feb-20 15:44 34.722196 -116.538310 226 22068ft 432kts
13-Feb-20 15:45 34.653066 -116.613751 219 22077ft 379kts
13-Feb-20 15:46 34.586789 -116.678948 218 22080ft 389kts
13-Feb-20 15:47 34.518452 -116.745817 218 20954ft 391kts
13-Feb-20 15:48 34.457296 -116.814119 223 19355ft 377kts
13-Feb-20 15:49 34.397903 -116.883076 223 17656ft 367kts
13-Feb-20 15:50 34.342172 -116.947671 223 16093ft 357kts
13-Feb-20 15:51 34.289457 -117.008302 223 14595ft 350kts
13-Feb-20 15:52 34.229462 -117.060923 210 14002ft 361kts
13-Feb-20 15:53 34.165707 -117.105541 204 13026ft 364kts
13-Feb-20 15:54 34.102200 -117.139716 203 12968ft 355kts
13-Feb-20 15:55 34.028396 -117.179176 204 12597ft 363kts
13-Feb-20 15:56 33.970011 -117.234438 227 11324ft 354kts
13-Feb-20 15:57 33.925218 -117.296392 234 10338ft 335kts
13-Feb-20 15:58 33.909150 -117.364502 261 9339ft 310kts
13-Feb-20 15:59 33.903541 -117.429459 270 8346ft 288kts
13-Feb-20 16:00 33.905609 -117.495477 271 7035ft 289kts
13-Feb-20 16:01 33.908085 -117.560459 271 5665ft 282kts
13-Feb-20 16:02 33.910684 -117.624970 271 4196ft 277kts
13-Feb-20 16:03 33.913462 -117.689082 271 3959ft 231kts
13-Feb-20 16:04 33.915787 -117.744147 263 3964ft 217kts
13-Feb-20 16:05 33.889706 -117.775258 187 3223ft 212kts
13-Feb-20 16:06 33.854387 -117.773481 175 2976ft 189kts
13-Feb-20 16:07 33.823126 -117.776128 202 2986ft 175kts
13-Feb-20 16:08 33.795019 -117.793086 207 2596ft 164kts
13-Feb-20 16:09 33.768377 -117.810039 208 2013ft 158kts
13-Feb-20 16:10 33.742758 -117.826315 208 1444ft 154kts
13-Feb-20 16:11 33.716443 -117.843018 208 862ft 153kts
13-Feb-20 16:12 33.690759 -117.859319 208 287ft 150kts
13-Feb-20 16:13 33.671578 -117.871447 210 67ft 47kts
13-Feb-20 16:14 33.669225 -117.871707 134 67ft 0kts

Navigation Log

Ident Type
Flight plan parsing failed, navigation log unavailable